createdAt,value
2022-11-27T00:01:26.840Z,99575.63
2022-11-27T00:03:54.754Z,99541.81
2022-11-27T00:06:23.778Z,99500.50
2022-11-27T00:08:50.967Z,99577.78
2022-11-27T00:11:20.640Z,99528.88
2022-11-27T00:13:48.121Z,99572.03
2022-11-27T00:16:15.576Z,99455.97
2022-11-27T00:18:42.659Z,99485.78
2022-11-27T00:21:13.914Z,99565.69
2022-11-27T00:23:41.410Z,99564.38
2022-11-27T00:26:10.105Z,99517.47
2022-11-27T00:28:38.192Z,99561.34
2022-11-27T00:31:13.280Z,99547.72
2022-11-27T00:33:40.022Z,99513.56
2022-11-27T00:36:07.603Z,99487.78
2022-11-27T00:38:38.732Z,99543.84
2022-11-27T00:41:11.175Z,99479.34
2022-11-27T00:43:44.448Z,99559.25
2022-11-27T00:46:25.376Z,99545.72
2022-11-27T00:48:57.996Z,99444.72
2022-11-27T00:51:27.369Z,99465.81
2022-11-27T00:54:05.137Z,99547.16
2022-11-27T00:56:34.925Z,99457.97
2022-11-27T00:59:02.139Z,99547.06
2022-11-27T01:01:32.346Z,99438.34
2022-11-27T01:04:00.967Z,99473.47
2022-11-27T01:06:29.792Z,99503.50
2022-11-27T01:08:57.598Z,99467.47
2022-11-27T01:11:27.859Z,99520.78
2022-11-27T01:13:58.070Z,99497.97
2022-11-27T01:16:26.941Z,99519.28
2022-11-27T01:18:56.182Z,99519.16
2022-11-27T01:21:24.098Z,99442.19
2022-11-27T01:23:51.191Z,99468.31
2022-11-27T01:26:18.809Z,99458.94
2022-11-27T01:28:46.069Z,99426.72
2022-11-27T01:31:16.180Z,99516.78
2022-11-27T01:33:43.696Z,99502.66
2022-11-27T01:36:12.046Z,99492.06
2022-11-27T01:38:38.778Z,99452.56
2022-11-27T01:41:27.375Z,99504.41
2022-11-27T01:44:02.139Z,99495.69
2022-11-27T01:46:40.995Z,99491.75
2022-11-27T01:49:20.602Z,99488.09
2022-11-27T01:51:54.735Z,99426.66
2022-11-27T01:54:25.057Z,99406.91
2022-11-27T01:56:56.062Z,99449.66
2022-11-27T01:59:23.893Z,99441.31
2022-11-27T02:01:50.789Z,99438.50
2022-11-27T02:04:18.690Z,99395.66
2022-11-27T02:06:45.493Z,99428.09
2022-11-27T02:09:12.515Z,99403.78
2022-11-27T02:11:58.146Z,99466.09
2022-11-27T02:14:31.118Z,99461.72
2022-11-27T02:17:09.078Z,99466.00
2022-11-27T02:20:00.974Z,99470.81
2022-11-27T02:22:46.465Z,99465.88
2022-11-27T02:25:38.946Z,99464.63
2022-11-27T02:28:05.565Z,99467.31
2022-11-27T02:30:38.168Z,99390.56
2022-11-27T02:33:09.615Z,99390.34
2022-11-27T02:35:47.968Z,99395.97
2022-11-27T02:38:27.627Z,99375.28
2022-11-27T02:41:06.697Z,99400.34
2022-11-27T02:43:38.475Z,99467.53
2022-11-27T02:46:08.029Z,99413.44
2022-11-27T02:48:48.488Z,99431.84
2022-11-27T02:51:20.121Z,99364.88
2022-11-27T02:53:52.125Z,99402.19
2022-11-27T02:56:24.688Z,99457.03
2022-11-27T02:58:55.249Z,99404.06
2022-11-27T03:01:23.671Z,99453.88
2022-11-27T03:03:55.420Z,99385.88
2022-11-27T03:06:32.488Z,99434.16
2022-11-27T03:09:36.856Z,99399.69
2022-11-27T03:12:05.948Z,99400.53
2022-11-27T03:14:34.645Z,99400.13
2022-11-27T03:17:06.763Z,99384.94
2022-11-27T03:20:12.049Z,99419.16
2022-11-27T03:22:38.906Z,99369.31
2022-11-27T03:25:05.816Z,99379.00
2022-11-27T03:27:39.896Z,99404.91
2022-11-27T03:30:09.168Z,99379.53
2022-11-27T03:32:36.066Z,99374.63
2022-11-27T03:35:05.163Z,99356.56
2022-11-27T03:37:31.771Z,99360.00
2022-11-27T03:39:58.715Z,99368.19
2022-11-27T03:43:06.528Z,99431.09
2022-11-27T03:45:59.666Z,99372.09
2022-11-27T03:48:38.208Z,99366.38
2022-11-27T03:51:17.366Z,99365.22
2022-11-27T03:54:04.171Z,99388.13
2022-11-27T03:56:39.714Z,99437.09
2022-11-27T03:59:24.081Z,99430.66
2022-11-27T04:01:51.009Z,99393.38
2022-11-27T04:04:18.053Z,99369.84
2022-11-27T04:06:44.812Z,99309.69
2022-11-27T04:09:11.388Z,99340.59
2022-11-27T04:11:38.063Z,99399.56
2022-11-27T04:14:04.835Z,99376.16
2022-11-27T04:16:31.593Z,99376.59
2022-11-27T04:18:58.168Z,99401.13
2022-11-27T04:21:25.149Z,99419.88
2022-11-27T04:23:51.734Z,99422.16
2022-11-27T04:26:18.417Z,99431.00
2022-11-27T04:28:45.064Z,99399.28
2022-11-27T04:31:11.750Z,99407.59
2022-11-27T04:33:38.747Z,99413.75
2022-11-27T04:36:05.835Z,99400.94
2022-11-27T04:38:32.382Z,99368.09
2022-11-27T04:40:59.029Z,99371.63
2022-11-27T04:43:25.692Z,99341.47
2022-11-27T04:45:52.584Z,99405.66
2022-11-27T04:48:19.170Z,99375.75
2022-11-27T04:50:45.879Z,99372.09
2022-11-27T04:53:12.470Z,99359.19
2022-11-27T04:55:39.129Z,99378.06
2022-11-27T04:58:05.816Z,99395.81
2022-11-27T05:00:32.706Z,99368.78
2022-11-27T05:02:59.407Z,99373.69
2022-11-27T05:05:26.155Z,99386.16
2022-11-27T05:07:52.764Z,99336.22
2022-11-27T05:10:19.488Z,99359.47
2022-11-27T05:12:46.117Z,99346.78
2022-11-27T05:15:12.810Z,99316.31
2022-11-27T05:17:39.380Z,99352.38
2022-11-27T05:20:09.633Z,99230.13
2022-11-27T05:22:36.252Z,99316.59
2022-11-27T05:25:03.117Z,99374.16
2022-11-27T05:27:29.754Z,99386.44
2022-11-27T05:29:56.433Z,99367.56
2022-11-27T05:32:23.007Z,99327.28
2022-11-27T05:34:49.664Z,99296.75
2022-11-27T05:37:19.515Z,99316.00
2022-11-27T05:39:46.862Z,99372.81
2022-11-27T05:42:13.479Z,99338.47
2022-11-27T05:44:40.422Z,99308.13
2022-11-27T05:47:07.278Z,99294.19
2022-11-27T05:49:34.009Z,99331.31
2022-11-27T05:52:00.568Z,99291.94
2022-11-27T05:54:27.207Z,99332.91
2022-11-27T05:56:53.822Z,99349.03
2022-11-27T05:59:20.556Z,99284.38
2022-11-27T06:01:47.150Z,99297.13
2022-11-27T06:04:13.918Z,99295.59
2022-11-27T06:06:40.506Z,99310.47
2022-11-27T06:09:12.534Z,99316.06
2022-11-27T06:11:40.917Z,99241.97
2022-11-27T06:14:08.701Z,99303.50
2022-11-27T06:16:35.445Z,99272.72
2022-11-27T06:19:02.525Z,99317.13
2022-11-27T06:21:29.268Z,99306.09
2022-11-27T06:23:56.623Z,99279.28
2022-11-27T06:26:29.481Z,99297.47
2022-11-27T06:28:57.958Z,99310.69
2022-11-27T06:31:27.635Z,99303.59
2022-11-27T06:33:55.928Z,99334.47
2022-11-27T06:36:26.781Z,99312.56
2022-11-27T06:38:53.361Z,99215.16
2022-11-27T06:41:23.139Z,99291.16
2022-11-27T06:43:50.050Z,99271.28
2022-11-27T06:46:19.287Z,99317.84
2022-11-27T06:48:47.925Z,99257.78
2022-11-27T06:51:18.897Z,99314.00
2022-11-27T06:53:45.630Z,99313.19
2022-11-27T06:56:15.038Z,99265.97
2022-11-27T06:58:42.584Z,99252.66
2022-11-27T07:01:13.540Z,99309.00
2022-11-27T07:03:40.661Z,99251.81
2022-11-27T07:06:09.405Z,99236.38
2022-11-27T07:08:36.312Z,99235.63
2022-11-27T07:11:15.812Z,99313.41
2022-11-27T07:13:42.509Z,99284.69
2022-11-27T07:16:10.688Z,99238.75
2022-11-27T07:18:42.856Z,99273.69
2022-11-27T07:21:10.294Z,99277.25
2022-11-27T07:23:37.879Z,99270.16
2022-11-27T07:26:17.748Z,99309.56
2022-11-27T07:28:45.270Z,99288.97
2022-11-27T07:31:14.114Z,99287.31
2022-11-27T07:33:41.367Z,99253.31
2022-11-27T07:36:17.684Z,99270.28
2022-11-27T07:38:45.447Z,99306.31
2022-11-27T07:41:13.016Z,99189.25
2022-11-27T07:43:40.887Z,99165.03
2022-11-27T07:46:11.256Z,99302.28
2022-11-27T07:48:37.956Z,99214.97
2022-11-27T07:51:09.545Z,99223.81
2022-11-27T07:53:37.345Z,99227.22
2022-11-27T07:56:08.223Z,99276.41
2022-11-27T07:58:35.307Z,99283.06
2022-11-27T08:01:05.801Z,99160.00
2022-11-27T08:03:32.504Z,99211.50
2022-11-27T08:05:59.093Z,99244.19
2022-11-27T08:08:25.760Z,99237.44
2022-11-27T08:10:52.308Z,99221.63
2022-11-27T08:13:18.936Z,99032.34
2022-11-27T08:15:45.648Z,99226.28
2022-11-27T08:18:12.518Z,99260.13
2022-11-27T08:20:39.183Z,99255.03
2022-11-27T08:23:05.954Z,99194.34
2022-11-27T08:25:32.608Z,99192.25
2022-11-27T08:27:59.280Z,99214.84
2022-11-27T08:30:26.015Z,99264.00
2022-11-27T08:32:52.704Z,99200.91
2022-11-27T08:35:19.265Z,99205.94
2022-11-27T08:37:46.498Z,99269.28
2022-11-27T08:40:13.154Z,99201.56
2022-11-27T08:42:39.828Z,99216.44
2022-11-27T08:45:06.869Z,99093.47
2022-11-27T08:47:33.557Z,99243.31
2022-11-27T08:50:00.336Z,99217.50
2022-11-27T08:52:27.024Z,99201.72
2022-11-27T08:54:57.615Z,99211.94
2022-11-27T08:57:25.218Z,99196.16
2022-11-27T08:59:52.059Z,99166.09
2022-11-27T09:02:18.797Z,99222.84
2022-11-27T09:04:45.390Z,99203.78
2022-11-27T09:07:12.094Z,99169.88
2022-11-27T09:09:38.668Z,99161.56
2022-11-27T09:12:05.564Z,99185.50
2022-11-27T09:14:32.184Z,99182.63
2022-11-27T09:16:58.887Z,99219.97
2022-11-27T09:19:25.645Z,99208.03
2022-11-27T09:21:52.815Z,99158.53
2022-11-27T09:24:19.423Z,99188.34
2022-11-27T09:26:46.172Z,99188.72
2022-11-27T09:29:12.830Z,99184.53
2022-11-27T09:31:39.714Z,99195.16
2022-11-27T09:34:06.327Z,99168.13
2022-11-27T09:36:33.122Z,99171.31
2022-11-27T09:39:00.143Z,99181.25
2022-11-27T09:41:42.105Z,99228.97
2022-11-27T09:44:23.038Z,99227.19
2022-11-27T09:46:51.311Z,99195.16
2022-11-27T09:49:24.022Z,99215.38
2022-11-27T09:52:01.380Z,99206.59
2022-11-27T09:54:46.760Z,99197.94
2022-11-27T09:57:21.930Z,99123.25
2022-11-27T09:59:52.092Z,99156.22
2022-11-27T10:02:26.517Z,99095.00
2022-11-27T10:08:07.228Z,99161.44
2022-11-27T10:11:09.626Z,99138.16
2022-11-27T10:13:55.755Z,99157.06
2022-11-27T10:16:31.338Z,99132.72
2022-11-27T10:19:03.131Z,99156.31
2022-11-27T10:21:45.562Z,99127.78
2022-11-27T10:24:30.913Z,99152.75
2022-11-27T10:26:59.093Z,99095.09
2022-11-27T10:29:39.428Z,99124.63
2022-11-27T10:32:52.910Z,99139.19
2022-11-27T10:35:17.314Z,99019.47
2022-11-27T10:37:49.608Z,99126.91
2022-11-27T10:40:32.348Z,99071.66
2022-11-27T10:43:18.640Z,99101.78
2022-11-27T10:46:04.066Z,99145.13
2022-11-27T10:48:31.038Z,99085.47
2022-11-27T10:50:57.591Z,99071.22
2022-11-27T10:53:35.680Z,99094.47
2022-11-27T10:56:11.567Z,99116.78
2022-11-27T10:58:41.456Z,99117.03
2022-11-27T11:01:11.130Z,99069.41
2022-11-27T11:03:38.003Z,99075.97
2022-11-27T11:06:24.283Z,99073.94
2022-11-27T11:09:03.411Z,99064.63
2022-11-27T11:11:30.191Z,99019.94
2022-11-27T11:13:56.767Z,99043.34
2022-11-27T11:16:30.583Z,99066.47
2022-11-27T11:19:00.329Z,99088.28
2022-11-27T11:21:40.727Z,99101.28
2022-11-27T11:24:18.147Z,99042.34
2022-11-27T11:26:50.904Z,99020.56
2022-11-27T11:29:47.056Z,99050.66
2022-11-27T11:32:19.846Z,99091.50
2022-11-27T11:34:57.769Z,99057.78
2022-11-27T11:37:30.471Z,99051.22
2022-11-27T11:40:01.502Z,99079.16
2022-11-27T11:42:31.619Z,99030.88
2022-11-27T11:45:17.690Z,99068.00
2022-11-27T11:47:53.123Z,99039.81
2022-11-27T11:51:03.437Z,99047.03
2022-11-27T11:53:37.818Z,99050.28
2022-11-27T11:56:29.287Z,99039.78
2022-11-27T11:59:01.528Z,99045.69
2022-11-27T12:01:38.735Z,98978.16
2022-11-27T12:04:32.914Z,99040.34
2022-11-27T12:06:59.818Z,99040.63
2022-11-27T12:09:37.336Z,99034.03
2022-11-27T12:12:34.568Z,99027.09
2022-11-27T12:15:47.270Z,99029.16
2022-11-27T12:18:23.101Z,99026.44
2022-11-27T12:21:15.178Z,99021.78
2022-11-27T12:23:55.650Z,99015.22
2022-11-27T12:26:46.978Z,99006.16
2022-11-27T12:29:27.543Z,98999.88
2022-11-27T12:32:03.320Z,98997.16
2022-11-27T12:34:39.336Z,98990.19
2022-11-27T12:37:14.148Z,98998.22
2022-11-27T12:40:22.446Z,98996.56
2022-11-27T12:43:24.016Z,98987.63
2022-11-27T12:46:06.022Z,98983.16
2022-11-27T12:48:45.191Z,98979.38
2022-11-27T12:51:31.684Z,98875.00
2022-11-27T12:54:05.989Z,98970.28
2022-11-27T12:56:47.358Z,98928.06
2022-11-27T12:59:45.194Z,98958.59
2022-11-27T13:02:27.287Z,98955.09
2022-11-27T13:05:00.042Z,98946.44
2022-11-27T13:07:41.132Z,98935.91
2022-11-27T13:10:31.118Z,98949.25
2022-11-27T13:13:22.082Z,98944.84
2022-11-27T13:15:57.345Z,98878.63
2022-11-27T13:18:35.363Z,98871.22
2022-11-27T13:21:05.733Z,98858.78
2022-11-27T13:23:33.150Z,98915.22
2022-11-27T13:26:05.238Z,98913.69
2022-11-27T13:28:46.483Z,98925.09
2022-11-27T13:31:21.363Z,98888.34
2022-11-27T13:33:50.683Z,98863.63
2022-11-27T13:36:22.307Z,98863.25
2022-11-27T13:38:57.694Z,98889.31
2022-11-27T13:41:33.535Z,98870.81
2022-11-27T13:44:01.653Z,98872.47
2022-11-27T13:46:31.715Z,98832.66
2022-11-27T13:49:01.399Z,98858.53
2022-11-27T13:51:32.121Z,98842.81
2022-11-27T13:54:11.378Z,98899.25
2022-11-27T13:56:39.687Z,98892.69
2022-11-27T13:59:17.241Z,98820.91
2022-11-27T14:02:02.082Z,98726.94
2022-11-27T14:04:30.414Z,98881.44
2022-11-27T14:07:09.957Z,98826.75
2022-11-27T14:09:51.647Z,98820.03
2022-11-27T14:12:25.519Z,98797.88
2022-11-27T14:15:21.108Z,98820.66
2022-11-27T14:17:53.079Z,98788.72
2022-11-27T14:20:28.870Z,98852.19
2022-11-27T14:23:11.718Z,98814.53
2022-11-27T14:25:40.183Z,98789.53
2022-11-27T14:28:20.138Z,98780.16
2022-11-27T14:30:51.314Z,98808.13
2022-11-27T14:33:25.049Z,98819.03
2022-11-27T14:35:57.261Z,98844.00
2022-11-27T14:38:25.650Z,98838.38
2022-11-27T14:40:53.918Z,98791.22
2022-11-27T14:43:23.807Z,98804.50
2022-11-27T14:45:52.844Z,98770.03
2022-11-27T14:48:34.663Z,98778.69
2022-11-27T14:51:01.884Z,98729.72
2022-11-27T14:53:28.969Z,98799.19
2022-11-27T14:55:58.407Z,98763.13
2022-11-27T14:58:28.266Z,98783.56
2022-11-27T15:01:07.822Z,98764.16
2022-11-27T15:03:34.608Z,98753.09
2022-11-27T15:06:06.746Z,98829.47
2022-11-27T15:08:35.852Z,98784.00
2022-11-27T15:11:04.831Z,98808.03
2022-11-27T15:13:34.832Z,98770.88
2022-11-27T15:16:23.027Z,98800.06
2022-11-27T15:18:54.238Z,98732.69
2022-11-27T15:21:23.405Z,98741.13
2022-11-27T15:23:50.592Z,98755.28
2022-11-27T15:26:33.913Z,98764.34
2022-11-27T15:29:01.388Z,98721.91
2022-11-27T15:31:30.145Z,98787.09
2022-11-27T15:34:19.928Z,98780.50
2022-11-27T15:37:00.406Z,98778.03
2022-11-27T15:39:44.911Z,98732.53
2022-11-27T15:42:11.703Z,98775.28
2022-11-27T15:44:38.657Z,98694.31
2022-11-27T15:47:06.846Z,98673.94
2022-11-27T15:49:33.449Z,98666.88
2022-11-27T15:52:00.123Z,98697.22
2022-11-27T15:54:26.861Z,98697.66
2022-11-27T15:56:53.563Z,98687.66
2022-11-27T15:59:20.532Z,98665.81
2022-11-27T16:01:48.251Z,98682.41
2022-11-27T16:04:14.857Z,98728.56
2022-11-27T16:06:41.548Z,98688.22
2022-11-27T16:09:08.712Z,98684.78
2022-11-27T16:11:35.627Z,98724.44
2022-11-27T16:14:02.243Z,98671.53
2022-11-27T16:16:30.508Z,98698.78
2022-11-27T16:19:03.035Z,98713.59
2022-11-27T16:21:32.054Z,98490.47
2022-11-27T16:24:04.122Z,98708.84
2022-11-27T16:26:31.135Z,98710.03
2022-11-27T16:28:58.115Z,98686.41
2022-11-27T16:31:26.763Z,98727.78
2022-11-27T16:33:53.485Z,98683.53
2022-11-27T16:36:23.310Z,98694.13
2022-11-27T16:38:52.458Z,98689.97
2022-11-27T16:41:20.034Z,98667.91
2022-11-27T16:43:49.892Z,98736.25
2022-11-27T16:46:29.602Z,98686.94
2022-11-27T16:49:00.602Z,98657.13
2022-11-27T16:51:31.227Z,98678.25
2022-11-27T16:54:01.843Z,98644.66
2022-11-27T16:56:29.946Z,98710.81
2022-11-27T16:59:02.835Z,98649.47
2022-11-27T17:01:33.469Z,98686.00
2022-11-27T17:04:00.342Z,98638.06
2022-11-27T17:06:32.499Z,98700.53
2022-11-27T17:09:01.881Z,98648.63
2022-11-27T17:11:30.923Z,98663.78
2022-11-27T17:13:58.936Z,98534.25
2022-11-27T17:16:25.796Z,98668.03
2022-11-27T17:18:53.434Z,98621.88
2022-11-27T17:21:28.765Z,98623.38
2022-11-27T17:23:57.809Z,98630.81
2022-11-27T17:26:26.469Z,98702.09
2022-11-27T17:28:54.469Z,98642.47
2022-11-27T17:31:26.774Z,98702.50
2022-11-27T17:33:55.022Z,98648.63
2022-11-27T17:36:23.485Z,98659.63
2022-11-27T17:38:50.346Z,98631.44
2022-11-27T17:41:17.042Z,98622.31
2022-11-27T17:43:44.030Z,98623.41
2022-11-27T17:46:16.880Z,98664.31
2022-11-27T17:48:44.557Z,98661.81
2022-11-27T17:51:11.326Z,98628.44
2022-11-27T17:53:38.615Z,98573.56
2022-11-27T17:56:06.496Z,98673.06
2022-11-27T17:58:33.456Z,98637.91
2022-11-27T18:01:00.940Z,98622.84
2022-11-27T18:03:29.261Z,98586.69
2022-11-27T18:05:56.000Z,98594.19
2022-11-27T18:08:23.333Z,98620.16
2022-11-27T18:10:50.480Z,98637.69
2022-11-27T18:13:18.270Z,98587.31
2022-11-27T18:15:45.256Z,98599.19
2022-11-27T18:18:11.939Z,98615.34
2022-11-27T18:20:38.641Z,98628.50
2022-11-27T18:23:05.473Z,98596.06
2022-11-27T18:25:32.222Z,98567.59
2022-11-27T18:27:58.839Z,98594.88
2022-11-27T18:30:25.652Z,98579.91
2022-11-27T18:32:52.396Z,98565.88
2022-11-27T18:35:19.072Z,98588.91
2022-11-27T18:37:45.715Z,98596.41
2022-11-27T18:40:12.648Z,98577.75
2022-11-27T18:42:39.503Z,98592.38
2022-11-27T18:45:20.251Z,98617.13
2022-11-27T18:47:53.748Z,98567.25
2022-11-27T18:50:21.739Z,98556.53
2022-11-27T18:52:50.184Z,98575.44
2022-11-27T18:55:16.813Z,98576.34
2022-11-27T18:57:43.611Z,98552.41
2022-11-27T19:00:10.799Z,98555.44
2022-11-27T19:02:37.503Z,98607.03
2022-11-27T19:05:04.468Z,98564.31
2022-11-27T19:07:31.318Z,98624.00
2022-11-27T19:09:57.954Z,98560.13
2022-11-27T19:12:24.620Z,98590.28
2022-11-27T19:14:51.299Z,98581.84
2022-11-27T19:17:18.767Z,98595.75
2022-11-27T19:20:00.514Z,98528.25
2022-11-27T19:22:27.486Z,98547.09
2022-11-27T19:24:56.389Z,98535.56
2022-11-27T19:27:23.001Z,98555.94
2022-11-27T19:29:49.844Z,98595.75
2022-11-27T19:32:17.239Z,98533.03
2022-11-27T19:34:44.188Z,98408.88
2022-11-27T19:37:11.512Z,98528.88
2022-11-27T19:39:38.349Z,98538.97
2022-11-27T19:42:05.945Z,98528.50
2022-11-27T19:44:32.684Z,98514.81
2022-11-27T19:46:59.394Z,98520.97
2022-11-27T19:49:27.356Z,98545.50
2022-11-27T19:51:54.248Z,98480.41
2022-11-27T19:54:20.994Z,98536.81
2022-11-27T19:56:49.313Z,98498.31
2022-11-27T19:59:20.278Z,98529.53
2022-11-27T20:01:54.579Z,98507.56
2022-11-27T20:04:26.083Z,98347.78
2022-11-27T20:06:52.831Z,98483.41
2022-11-27T20:09:20.072Z,98521.69
2022-11-27T20:11:47.893Z,98524.19
2022-11-27T20:14:15.316Z,98469.19
2022-11-27T20:16:43.429Z,98505.22
2022-11-27T20:19:10.850Z,98489.56
2022-11-27T20:21:37.793Z,98463.31
2022-11-27T20:24:04.855Z,98469.44
2022-11-27T20:26:35.334Z,98524.97
2022-11-27T20:29:05.648Z,98497.38
2022-11-27T20:31:35.502Z,98512.19
2022-11-27T20:34:06.600Z,98470.53
2022-11-27T20:36:40.327Z,98421.03
2022-11-27T20:39:13.910Z,98430.19
2022-11-27T20:41:45.349Z,98476.69
2022-11-27T20:44:14.191Z,98318.53
2022-11-27T20:46:46.662Z,98437.78
2022-11-27T20:49:16.556Z,98427.47
2022-11-27T20:51:45.721Z,98418.03
2022-11-27T20:54:12.541Z,98416.94
2022-11-27T20:56:39.233Z,98440.09
2022-11-27T20:59:06.639Z,98402.09
2022-11-27T21:01:38.509Z,98441.41
2022-11-27T21:04:15.795Z,98480.94
2022-11-27T21:06:44.219Z,98434.78
2022-11-27T21:09:15.260Z,98405.63
2022-11-27T21:11:43.831Z,98400.84
2022-11-27T21:14:13.552Z,98437.13
2022-11-27T21:16:43.883Z,98384.50
2022-11-27T21:19:19.585Z,98405.97
2022-11-27T21:21:46.511Z,98418.53
2022-11-27T21:24:14.069Z,98436.34
2022-11-27T21:26:41.436Z,98371.63
2022-11-27T21:29:09.551Z,98452.81
2022-11-27T21:31:38.003Z,98455.31
2022-11-27T21:34:08.256Z,98416.53
2022-11-27T21:36:36.900Z,98457.47
2022-11-27T21:39:08.012Z,98457.94
2022-11-27T21:41:35.881Z,98405.09
2022-11-27T21:44:05.333Z,98403.44
2022-11-27T21:46:33.783Z,98378.94
2022-11-27T21:49:04.051Z,98377.97
2022-11-27T21:51:31.098Z,98419.63
2022-11-27T21:53:59.336Z,98388.84
2022-11-27T21:56:29.124Z,98426.16
2022-11-27T21:58:55.927Z,98367.53
2022-11-27T22:01:24.873Z,98323.69
2022-11-27T22:03:52.180Z,98381.50
2022-11-27T22:06:18.919Z,98335.50
2022-11-27T22:08:48.027Z,98342.53
2022-11-27T22:11:21.392Z,98430.00
2022-11-27T22:13:49.380Z,98425.56
2022-11-27T22:16:19.558Z,98416.91
2022-11-27T22:18:47.789Z,98402.06
2022-11-27T22:21:15.625Z,98352.00
2022-11-27T22:23:43.836Z,98346.94
2022-11-27T22:26:14.134Z,98404.31
2022-11-27T22:28:41.184Z,98353.25
2022-11-27T22:31:13.000Z,98379.94
2022-11-27T22:33:41.425Z,98424.44
2022-11-27T22:36:17.432Z,98400.16
2022-11-27T22:38:45.699Z,98265.97
2022-11-27T22:41:13.976Z,98417.56
2022-11-27T22:43:41.325Z,98404.97
2022-11-27T22:46:15.248Z,98421.31
2022-11-27T22:48:42.474Z,98349.63
2022-11-27T22:51:09.754Z,98338.78
2022-11-27T22:53:37.585Z,98375.38
2022-11-27T22:56:09.890Z,98402.94
2022-11-27T22:58:41.119Z,98313.63
2022-11-27T23:01:13.716Z,98385.84
2022-11-27T23:03:40.631Z,98352.97
2022-11-27T23:06:10.843Z,98414.09
2022-11-27T23:08:41.597Z,98336.56
2022-11-27T23:11:09.414Z,98393.00
2022-11-27T23:13:36.944Z,98385.69
2022-11-27T23:16:06.260Z,98369.84
2022-11-27T23:18:33.680Z,98315.19
2022-11-27T23:21:00.425Z,98278.38
2022-11-27T23:23:27.295Z,98280.09
2022-11-27T23:25:53.943Z,98280.97
2022-11-27T23:28:20.544Z,98209.41
2022-11-27T23:30:48.499Z,98279.09
2022-11-27T23:33:19.364Z,98286.25
2022-11-27T23:35:45.912Z,98273.78
2022-11-27T23:38:12.625Z,98301.22
2022-11-27T23:40:39.333Z,98254.81
2022-11-27T23:43:06.051Z,98220.66
2022-11-27T23:45:32.772Z,98236.56
2022-11-27T23:48:00.896Z,98271.63
2022-11-27T23:50:27.484Z,98205.69
2022-11-27T23:52:55.521Z,98262.38
2022-11-27T23:55:22.164Z,98263.44
2022-11-27T23:57:48.892Z,98248.72
